Weather at Bugsuk (Bonbon) Airport

Public forecast

Using degrees Celsius for public forecast. Weather courtesy of forecast.io.

Closest aviation weather report (METAR) to Bugsuk (Bonbon) Airport

Closest report is Kudat Airport, 83.6 nm (154.8 km) SSW. Retrieved 2022/08/13 17:00 UTC (19 minutes ago):

WBKT 131700Z 00000KT 9999 FEW015 25/25 Q1009

Closest aviation forecast (TAF) to Bugsuk (Bonbon) Airport

Closest forecast is Puerto Princesa Airport, 124.3 nm (230.2 km) NE. Retrieved 2022/08/13 12:01 UTC (5 hours ago):

TAF RPVP 131100Z 1312/1412 30005KT 9999 SCT019 BKN080 TEMPO 1312/1318 -SHRA SCT017CB OVC080